createdAt,value
2022-07-29T00:02:16.085Z,24.59
2022-07-29T00:04:42.844Z,24.53
2022-07-29T00:07:09.516Z,24.48
2022-07-29T00:09:42.991Z,24.43
2022-07-29T00:12:25.121Z,24.53
2022-07-29T00:14:53.953Z,24.72
2022-07-29T00:17:20.679Z,24.80
2022-07-29T00:19:47.276Z,24.79
2022-07-29T00:22:13.964Z,24.77
2022-07-29T00:24:40.642Z,24.76
2022-07-29T00:27:07.448Z,24.70
2022-07-29T00:29:35.011Z,24.72
2022-07-29T00:32:03.134Z,24.75
2022-07-29T00:34:48.585Z,24.75
2022-07-29T00:37:15.214Z,24.73
2022-07-29T00:39:41.885Z,24.74
2022-07-29T00:42:08.996Z,24.79
2022-07-29T00:44:40.528Z,24.70
2022-07-29T00:47:08.533Z,24.75
2022-07-29T00:49:36.577Z,24.67
2022-07-29T00:52:05.039Z,24.69
2022-07-29T00:54:32.022Z,24.66
2022-07-29T00:57:01.924Z,24.62
2022-07-29T00:59:34.770Z,24.63
2022-07-29T01:02:03.149Z,24.61
2022-07-29T01:04:30.754Z,24.58
2022-07-29T01:06:57.670Z,24.62
2022-07-29T01:09:42.041Z,24.58
2022-07-29T01:12:13.944Z,24.58
2022-07-29T01:14:41.617Z,24.55
2022-07-29T01:17:15.097Z,24.59
2022-07-29T01:20:12.534Z,24.56
2022-07-29T01:23:06.628Z,24.46
2022-07-29T01:25:45.307Z,24.45
2022-07-29T01:28:34.098Z,24.41
2022-07-29T01:31:03.611Z,24.37
2022-07-29T01:33:51.451Z,24.39
2022-07-29T01:36:41.441Z,24.42
2022-07-29T01:39:07.976Z,24.38
2022-07-29T01:41:39.651Z,24.40
2022-07-29T01:44:33.996Z,24.36
2022-07-29T01:47:07.217Z,24.36
2022-07-29T01:49:40.749Z,24.25
2022-07-29T01:52:14.305Z,24.16
2022-07-29T01:55:10.753Z,24.06
2022-07-29T01:57:40.858Z,23.99
2022-07-29T02:00:08.396Z,24.02
2022-07-29T02:02:37.828Z,23.96
2022-07-29T02:05:08.814Z,24.00
2022-07-29T02:07:37.382Z,23.97
2022-07-29T02:10:07.229Z,23.95
2022-07-29T02:12:34.726Z,23.97
2022-07-29T02:15:02.979Z,24.01
2022-07-29T02:17:39.888Z,24.02
2022-07-29T02:20:09.696Z,24.08
2022-07-29T02:22:39.204Z,24.12
2022-07-29T02:25:08.408Z,24.01
2022-07-29T02:27:42.560Z,24.05
2022-07-29T02:30:11.141Z,24.04
2022-07-29T02:32:40.237Z,24.06
2022-07-29T02:35:10.058Z,24.06
2022-07-29T02:37:38.640Z,24.00
2022-07-29T02:40:09.398Z,24.01
2022-07-29T02:42:38.446Z,24.02
2022-07-29T02:45:07.216Z,24.10
2022-07-29T02:48:00.676Z,24.06
2022-07-29T02:50:34.925Z,24.03
2022-07-29T02:53:09.481Z,24.07
2022-07-29T02:55:41.421Z,24.05
2022-07-29T02:58:16.203Z,23.96
2022-07-29T03:00:45.145Z,23.96
2022-07-29T03:03:18.239Z,23.92
2022-07-29T03:05:44.847Z,23.94
2022-07-29T03:08:12.782Z,23.95
2022-07-29T03:10:43.696Z,23.92
2022-07-29T03:13:11.271Z,23.96
2022-07-29T03:15:38.368Z,23.99
2022-07-29T03:18:07.503Z,23.81
2022-07-29T03:20:34.329Z,23.74
2022-07-29T03:23:01.239Z,23.73
2022-07-29T03:25:28.378Z,23.75
2022-07-29T03:27:55.129Z,23.74
2022-07-29T03:30:22.559Z,23.77
2022-07-29T03:32:52.157Z,23.79
2022-07-29T03:35:20.395Z,23.80
2022-07-29T03:37:47.844Z,23.84
2022-07-29T03:40:22.753Z,23.85
2022-07-29T03:42:51.315Z,23.89
2022-07-29T03:45:20.137Z,23.92
2022-07-29T03:47:54.720Z,23.94
2022-07-29T03:50:23.899Z,23.98
2022-07-29T03:52:51.018Z,23.97
2022-07-29T03:55:17.768Z,23.97
2022-07-29T03:57:45.963Z,24.08
2022-07-29T04:00:13.280Z,24.08
2022-07-29T04:02:40.954Z,24.02
2022-07-29T04:05:13.681Z,23.95
2022-07-29T04:07:41.245Z,23.96
2022-07-29T04:10:08.823Z,23.93
2022-07-29T04:12:36.101Z,23.87
2022-07-29T04:15:06.905Z,23.91
2022-07-29T04:17:33.535Z,23.90
2022-07-29T04:20:00.258Z,23.88
2022-07-29T04:22:26.925Z,23.88
2022-07-29T04:24:54.099Z,23.88
2022-07-29T04:27:20.827Z,23.95
2022-07-29T04:29:56.480Z,23.95
2022-07-29T04:32:25.142Z,23.91
2022-07-29T04:34:51.994Z,23.85
2022-07-29T04:37:18.586Z,23.83
2022-07-29T04:39:45.206Z,23.87
2022-07-29T04:42:12.007Z,23.84
2022-07-29T04:44:42.893Z,23.82
2022-07-29T04:47:09.932Z,23.81
2022-07-29T04:49:39.389Z,23.84
2022-07-29T04:52:07.042Z,23.83
2022-07-29T04:54:34.131Z,23.85
2022-07-29T04:57:00.845Z,23.90
2022-07-29T04:59:28.166Z,23.99
2022-07-29T05:01:54.980Z,23.99
2022-07-29T05:04:21.805Z,24.21
2022-07-29T05:06:49.424Z,24.52
2022-07-29T05:09:16.150Z,24.83
2022-07-29T05:11:42.781Z,24.85
2022-07-29T05:14:09.459Z,24.97
2022-07-29T05:16:36.048Z,25.14
2022-07-29T05:19:02.719Z,25.17
2022-07-29T05:21:29.355Z,25.16
2022-07-29T05:23:56.019Z,25.13
2022-07-29T05:26:22.603Z,25.08
2022-07-29T05:28:49.277Z,25.10
2022-07-29T05:31:16.007Z,25.08
2022-07-29T05:33:42.915Z,25.08
2022-07-29T05:36:09.827Z,25.08
2022-07-29T05:38:36.942Z,25.07
2022-07-29T05:41:04.193Z,25.08
2022-07-29T05:43:31.144Z,25.05
2022-07-29T05:45:58.040Z,25.08
2022-07-29T05:48:25.014Z,25.07
2022-07-29T05:50:51.938Z,25.04
2022-07-29T05:53:19.480Z,25.04
2022-07-29T05:55:47.009Z,25.07
2022-07-29T05:58:13.612Z,25.07
2022-07-29T06:00:40.874Z,25.06
2022-07-29T06:03:07.684Z,25.03
2022-07-29T06:05:34.348Z,25.05
2022-07-29T06:08:00.965Z,25.05
2022-07-29T06:10:27.883Z,25.04
2022-07-29T06:12:54.858Z,25.05
2022-07-29T06:15:21.450Z,25.05
2022-07-29T06:17:59.857Z,25.06
2022-07-29T06:20:30.792Z,25.01
2022-07-29T06:22:58.007Z,25.06
2022-07-29T06:25:24.624Z,25.02
2022-07-29T06:27:51.251Z,25.06
2022-07-29T06:30:17.920Z,25.06
2022-07-29T06:32:44.489Z,25.02
2022-07-29T06:35:41.089Z,24.97
2022-07-29T06:37:59.555Z,24.87
2022-07-29T06:40:45.108Z,24.87
2022-07-29T06:43:11.825Z,24.84
2022-07-29T06:45:42.310Z,24.91
2022-07-29T06:48:10.068Z,24.96
2022-07-29T06:50:36.780Z,24.99
2022-07-29T06:53:04.165Z,25.06
2022-07-29T06:55:30.764Z,25.13
2022-07-29T06:57:57.339Z,25.11
2022-07-29T07:00:23.990Z,25.13
2022-07-29T07:02:50.690Z,25.16
2022-07-29T07:05:17.355Z,25.16
2022-07-29T07:07:43.923Z,25.14
2022-07-29T07:10:10.583Z,25.16
2022-07-29T07:12:37.259Z,25.17
2022-07-29T07:15:04.176Z,25.20
2022-07-29T07:17:30.773Z,25.16
2022-07-29T07:19:57.357Z,25.11
2022-07-29T07:22:23.974Z,25.13
2022-07-29T07:24:50.557Z,25.11
2022-07-29T07:27:17.161Z,25.11
2022-07-29T07:29:44.191Z,25.09
2022-07-29T07:32:11.276Z,25.03
2022-07-29T07:34:39.049Z,24.96
2022-07-29T07:37:06.353Z,25.09
2022-07-29T07:39:32.990Z,25.10
2022-07-29T07:41:59.852Z,25.07
2022-07-29T07:44:26.554Z,25.11
2022-07-29T07:46:53.635Z,24.89
2022-07-29T07:49:21.719Z,24.92
2022-07-29T07:51:50.756Z,24.95
2022-07-29T07:54:18.918Z,24.97
2022-07-29T07:56:52.948Z,25.01
2022-07-29T07:59:20.106Z,25.00
2022-07-29T08:01:47.831Z,25.02
2022-07-29T08:04:27.305Z,25.02
2022-07-29T08:06:55.300Z,25.05
2022-07-29T08:09:29.254Z,25.05
2022-07-29T08:11:57.877Z,24.96
2022-07-29T08:14:24.578Z,24.97
2022-07-29T08:16:52.570Z,24.98
2022-07-29T08:19:19.314Z,24.89
2022-07-29T08:21:46.562Z,24.86
2022-07-29T08:24:32.215Z,24.95
2022-07-29T08:26:59.123Z,25.08
2022-07-29T08:29:27.240Z,25.19
2022-07-29T08:31:54.356Z,25.36
2022-07-29T08:34:27.909Z,25.23
2022-07-29T08:36:55.031Z,25.18
2022-07-29T08:39:21.826Z,25.26
2022-07-29T08:41:57.005Z,25.24
2022-07-29T08:44:30.833Z,25.23
2022-07-29T08:46:57.983Z,25.19
2022-07-29T08:49:24.638Z,25.34
2022-07-29T08:51:52.222Z,25.31
2022-07-29T08:54:19.614Z,25.37
2022-07-29T08:56:50.852Z,25.41
2022-07-29T08:59:22.077Z,25.44
2022-07-29T09:01:53.753Z,25.44
2022-07-29T09:04:22.129Z,25.49
2022-07-29T09:06:52.333Z,25.62
2022-07-29T09:09:19.229Z,25.81
2022-07-29T09:11:45.948Z,25.70
2022-07-29T09:14:14.406Z,25.91
2022-07-29T09:16:56.281Z,25.95
2022-07-29T09:19:37.193Z,26.09
2022-07-29T09:22:06.526Z,26.00
2022-07-29T09:24:44.052Z,26.11
2022-07-29T09:27:18.695Z,26.14
2022-07-29T09:29:45.391Z,26.00
2022-07-29T09:32:12.290Z,26.06
2022-07-29T09:34:39.428Z,25.99
2022-07-29T09:37:06.475Z,26.08
2022-07-29T09:39:47.335Z,26.05
2022-07-29T09:42:15.909Z,26.09
2022-07-29T09:44:49.174Z,26.15
2022-07-29T09:47:17.264Z,26.21
2022-07-29T09:50:04.389Z,26.33
2022-07-29T09:52:31.367Z,26.14
2022-07-29T09:55:08.427Z,26.40
2022-07-29T09:57:35.354Z,26.40
2022-07-29T10:00:08.020Z,26.50
2022-07-29T10:02:37.461Z,26.64
2022-07-29T10:05:06.869Z,26.68
2022-07-29T10:07:48.304Z,26.78
2022-07-29T10:10:38.041Z,26.75
2022-07-29T10:13:16.410Z,26.75
2022-07-29T10:15:46.779Z,26.86
2022-07-29T10:18:18.244Z,26.96
2022-07-29T10:20:45.253Z,26.84
2022-07-29T10:23:11.885Z,26.94
2022-07-29T10:25:38.547Z,26.94
2022-07-29T10:28:06.806Z,27.01
2022-07-29T10:30:33.736Z,27.09
2022-07-29T10:33:18.984Z,27.12
2022-07-29T10:35:54.425Z,27.16
2022-07-29T10:38:47.078Z,27.23
2022-07-29T10:41:36.269Z,27.31
2022-07-29T10:44:17.291Z,27.16
2022-07-29T10:46:46.459Z,26.87
2022-07-29T10:49:24.375Z,26.77
2022-07-29T10:51:51.855Z,26.83
2022-07-29T10:54:48.640Z,27.02
2022-07-29T10:57:52.539Z,27.25
2022-07-29T11:00:27.833Z,27.44
2022-07-29T11:02:56.439Z,27.74
2022-07-29T11:05:24.795Z,27.90
2022-07-29T11:08:20.206Z,27.77
2022-07-29T11:10:51.512Z,27.87
2022-07-29T11:13:47.349Z,28.00
2022-07-29T11:16:16.744Z,27.98
2022-07-29T11:19:26.170Z,28.22
2022-07-29T11:22:05.609Z,28.45
2022-07-29T11:24:34.774Z,28.72
2022-07-29T11:27:08.476Z,28.76
2022-07-29T11:29:40.404Z,28.87
2022-07-29T11:35:37.330Z,29.58
2022-07-29T11:38:23.682Z,30.17
2022-07-29T11:41:18.501Z,30.67
2022-07-29T11:43:50.874Z,30.83
2022-07-29T11:46:36.795Z,31.27
2022-07-29T11:49:09.252Z,31.72
2022-07-29T11:51:38.089Z,31.82
2022-07-29T11:54:27.403Z,31.70
2022-07-29T11:56:54.882Z,30.28
2022-07-29T11:59:22.367Z,30.67
2022-07-29T12:02:18.573Z,30.53
2022-07-29T12:04:57.792Z,30.47
2022-07-29T12:07:34.640Z,29.88
2022-07-29T12:10:03.156Z,29.72
2022-07-29T12:12:29.921Z,29.85
2022-07-29T12:14:56.667Z,29.95
2022-07-29T12:17:32.021Z,29.92
2022-07-29T12:20:00.777Z,29.60
2022-07-29T12:22:35.788Z,29.62
2022-07-29T12:25:31.948Z,29.62
2022-07-29T12:28:03.156Z,29.57
2022-07-29T12:30:42.846Z,29.59
2022-07-29T12:33:13.954Z,29.46
2022-07-29T12:35:42.410Z,29.50
2022-07-29T12:38:12.180Z,29.71
2022-07-29T12:40:39.155Z,29.48
2022-07-29T12:43:06.774Z,29.44
2022-07-29T12:45:33.530Z,29.61
2022-07-29T12:48:00.305Z,29.68
2022-07-29T12:50:27.028Z,29.70
2022-07-29T12:52:53.671Z,29.59
2022-07-29T12:55:43.241Z,29.76
2022-07-29T12:58:09.913Z,30.03
2022-07-29T13:00:36.770Z,29.97
2022-07-29T13:03:03.463Z,30.04
2022-07-29T13:05:44.598Z,30.13
2022-07-29T13:08:22.088Z,30.30
2022-07-29T13:10:48.981Z,30.21
2022-07-29T13:13:16.415Z,30.31
2022-07-29T13:15:49.872Z,30.26
2022-07-29T13:18:34.614Z,30.13
2022-07-29T13:21:16.055Z,29.91
2022-07-29T13:23:43.569Z,29.98
2022-07-29T13:26:12.500Z,30.14
2022-07-29T13:28:39.202Z,30.18
2022-07-29T13:31:06.067Z,29.96
2022-07-29T13:33:32.936Z,30.14
2022-07-29T13:35:59.551Z,30.26
2022-07-29T13:38:31.125Z,30.36
2022-07-29T13:40:58.221Z,30.12
2022-07-29T13:43:24.906Z,30.09
2022-07-29T13:45:51.600Z,30.23
2022-07-29T13:48:18.305Z,30.46
2022-07-29T13:50:45.226Z,30.46
2022-07-29T13:53:18.015Z,30.12
2022-07-29T13:55:46.115Z,29.80
2022-07-29T13:58:12.759Z,29.57
2022-07-29T14:00:39.436Z,29.47
2022-07-29T14:03:07.396Z,29.80
2022-07-29T14:05:34.108Z,30.01
2022-07-29T14:08:00.701Z,30.15
2022-07-29T14:10:27.435Z,29.70
2022-07-29T14:12:54.041Z,29.44
2022-07-29T14:15:21.277Z,29.38
2022-07-29T14:17:47.870Z,29.25
2022-07-29T14:20:16.513Z,29.17
2022-07-29T14:22:45.064Z,29.02
2022-07-29T14:25:14.713Z,29.29
2022-07-29T14:27:43.019Z,29.43
2022-07-29T14:30:10.541Z,29.45
2022-07-29T14:32:37.303Z,29.61
2022-07-29T14:35:04.483Z,29.59
2022-07-29T14:37:39.822Z,29.10
2022-07-29T14:40:08.758Z,28.81
2022-07-29T14:42:35.492Z,28.76
2022-07-29T14:45:02.179Z,28.81
2022-07-29T14:47:28.837Z,28.96
2022-07-29T14:49:55.624Z,29.17
2022-07-29T14:52:22.235Z,29.29
2022-07-29T14:54:48.876Z,29.24
2022-07-29T14:57:15.919Z,29.20
2022-07-29T14:59:42.510Z,29.39
2022-07-29T15:02:09.590Z,29.33
2022-07-29T15:04:36.514Z,29.32
2022-07-29T15:07:03.360Z,29.27
2022-07-29T15:09:29.974Z,29.33
2022-07-29T15:11:57.002Z,29.39
2022-07-29T15:14:23.933Z,29.28
2022-07-29T15:16:52.728Z,29.29
2022-07-29T15:19:20.172Z,28.95
2022-07-29T15:21:48.567Z,28.93
2022-07-29T15:24:19.611Z,28.97
2022-07-29T15:26:47.388Z,28.65
2022-07-29T15:29:14.857Z,28.58
2022-07-29T15:31:41.817Z,28.56
2022-07-29T15:34:08.629Z,28.55
2022-07-29T15:36:51.638Z,28.54
2022-07-29T15:39:19.461Z,28.52
2022-07-29T15:41:46.060Z,28.81
2022-07-29T15:44:12.728Z,28.84
2022-07-29T15:46:58.327Z,28.81
2022-07-29T15:49:46.398Z,28.88
2022-07-29T15:52:17.267Z,28.81
2022-07-29T15:54:43.921Z,28.71
2022-07-29T15:57:10.756Z,28.64
2022-07-29T15:59:37.647Z,28.58
2022-07-29T16:02:05.012Z,28.52
2022-07-29T16:04:32.448Z,28.30
2022-07-29T16:06:59.478Z,28.28
2022-07-29T16:09:26.642Z,28.38
2022-07-29T16:11:54.065Z,28.26
2022-07-29T16:14:21.175Z,28.20
2022-07-29T16:16:48.322Z,28.10
2022-07-29T16:19:15.354Z,28.03
2022-07-29T16:21:42.116Z,27.88
2022-07-29T16:24:08.903Z,27.96
2022-07-29T16:26:35.757Z,27.97
2022-07-29T16:29:02.388Z,28.08
2022-07-29T16:31:29.070Z,27.97
2022-07-29T16:33:56.110Z,27.94
2022-07-29T16:36:23.207Z,27.92
2022-07-29T16:38:50.406Z,27.85
2022-07-29T16:41:17.028Z,27.82
2022-07-29T16:43:43.639Z,27.82
2022-07-29T16:46:13.997Z,27.87
2022-07-29T16:48:45.446Z,27.83
2022-07-29T16:51:14.493Z,27.88
2022-07-29T16:53:41.611Z,27.82
2022-07-29T16:56:12.653Z,27.71
2022-07-29T16:58:43.485Z,27.61
2022-07-29T17:01:11.351Z,27.52
2022-07-29T17:04:00.207Z,27.51
2022-07-29T17:06:28.668Z,27.60
2022-07-29T17:08:56.459Z,27.54
2022-07-29T17:11:23.073Z,27.47
2022-07-29T17:14:10.229Z,27.54
2022-07-29T17:16:37.000Z,27.53
2022-07-29T17:19:03.739Z,27.48
2022-07-29T17:21:30.385Z,27.40
2022-07-29T17:23:58.840Z,27.39
2022-07-29T17:26:26.852Z,27.46
2022-07-29T17:28:55.023Z,27.38
2022-07-29T17:31:21.910Z,27.38
2022-07-29T17:33:48.605Z,27.35
2022-07-29T17:36:24.143Z,27.37
2022-07-29T17:38:53.244Z,27.33
2022-07-29T17:41:21.120Z,27.38
2022-07-29T17:43:48.470Z,27.29
2022-07-29T17:46:15.684Z,27.25
2022-07-29T17:48:43.969Z,27.24
2022-07-29T17:51:10.861Z,27.20
2022-07-29T17:53:37.930Z,27.20
2022-07-29T17:56:05.264Z,27.16
2022-07-29T17:58:32.518Z,27.20
2022-07-29T18:00:59.372Z,27.11
2022-07-29T18:03:26.064Z,27.13
2022-07-29T18:05:53.551Z,27.13
2022-07-29T18:08:20.275Z,27.14
2022-07-29T18:10:46.885Z,27.13
2022-07-29T18:13:13.858Z,27.17
2022-07-29T18:15:41.058Z,27.15
2022-07-29T18:18:08.395Z,27.07
2022-07-29T18:20:35.381Z,27.05
2022-07-29T18:23:02.036Z,27.03
2022-07-29T18:25:29.611Z,27.02
2022-07-29T18:28:00.303Z,27.04
2022-07-29T18:30:28.626Z,26.96
2022-07-29T18:33:19.652Z,26.99
2022-07-29T18:35:41.900Z,26.97
2022-07-29T18:38:08.509Z,26.94
2022-07-29T18:40:35.482Z,26.92
2022-07-29T18:43:02.224Z,26.87
2022-07-29T18:45:29.012Z,26.89
2022-07-29T18:47:57.148Z,26.93
2022-07-29T18:50:28.965Z,26.89
2022-07-29T18:52:58.457Z,26.91
2022-07-29T18:55:25.789Z,26.87
2022-07-29T18:57:55.430Z,26.82
2022-07-29T19:00:24.068Z,26.88
2022-07-29T19:02:50.968Z,26.87
2022-07-29T19:05:18.028Z,26.78
2022-07-29T19:07:44.635Z,26.84
2022-07-29T19:10:12.017Z,26.80
2022-07-29T19:12:39.160Z,26.82
2022-07-29T19:15:07.680Z,26.83
2022-07-29T19:17:34.314Z,26.84
2022-07-29T19:20:00.937Z,26.84
2022-07-29T19:22:27.800Z,26.82
2022-07-29T19:24:54.432Z,26.82
2022-07-29T19:27:21.539Z,26.82
2022-07-29T19:29:48.203Z,26.83
2022-07-29T19:32:25.345Z,26.81
2022-07-29T19:35:11.400Z,26.82
2022-07-29T19:37:38.293Z,26.79
2022-07-29T19:40:06.162Z,26.77
2022-07-29T19:42:33.019Z,26.77
2022-07-29T19:45:00.005Z,26.74
2022-07-29T19:47:26.821Z,26.68
2022-07-29T19:49:53.823Z,26.69
2022-07-29T19:52:20.485Z,26.64
2022-07-29T19:54:47.095Z,26.70
2022-07-29T19:57:14.183Z,26.69
2022-07-29T19:59:41.141Z,26.63
2022-07-29T20:02:10.936Z,26.64
2022-07-29T20:04:38.685Z,26.63
2022-07-29T20:07:06.771Z,26.67
2022-07-29T20:09:34.976Z,26.62
2022-07-29T20:12:01.689Z,26.62
2022-07-29T20:14:28.668Z,26.53
2022-07-29T20:16:55.262Z,26.59
2022-07-29T20:19:21.954Z,26.61
2022-07-29T20:21:49.303Z,26.56
2022-07-29T20:24:15.898Z,26.57
2022-07-29T20:26:42.586Z,26.58
2022-07-29T20:29:09.225Z,26.59
2022-07-29T20:31:36.156Z,26.58
2022-07-29T20:34:03.441Z,26.58
2022-07-29T20:36:30.118Z,26.59
2022-07-29T20:38:56.786Z,26.60
2022-07-29T20:41:23.546Z,26.62
2022-07-29T20:43:50.289Z,26.60
2022-07-29T20:46:17.939Z,26.59
2022-07-29T20:48:45.391Z,26.59
2022-07-29T20:51:12.080Z,26.59
2022-07-29T20:53:40.045Z,26.61
2022-07-29T20:56:07.723Z,26.58
2022-07-29T20:58:36.100Z,26.59
2022-07-29T21:01:03.239Z,26.57
2022-07-29T21:03:30.582Z,26.58
2022-07-29T21:05:57.236Z,26.57
2022-07-29T21:08:24.710Z,26.56
2022-07-29T21:10:51.523Z,26.56
2022-07-29T21:13:18.676Z,26.54
2022-07-29T21:15:49.248Z,26.55
2022-07-29T21:18:27.445Z,26.56
2022-07-29T21:20:55.005Z,26.54
2022-07-29T21:23:22.008Z,26.55
2022-07-29T21:25:48.679Z,26.55
2022-07-29T21:28:27.666Z,26.53
2022-07-29T21:30:59.528Z,26.54
2022-07-29T21:33:27.842Z,26.52
2022-07-29T21:38:41.790Z,26.52
2022-07-29T21:41:10.922Z,26.51
2022-07-29T21:43:37.964Z,26.49
2022-07-29T21:46:09.301Z,26.49
2022-07-29T21:48:36.248Z,26.47
2022-07-29T21:51:02.930Z,26.49
2022-07-29T21:53:30.675Z,26.38
2022-07-29T21:55:57.685Z,26.37
2022-07-29T21:58:25.192Z,26.38
2022-07-29T22:00:52.252Z,26.43
2022-07-29T22:03:18.987Z,26.37
2022-07-29T22:05:46.203Z,26.39
2022-07-29T22:08:13.505Z,26.46
2022-07-29T22:10:40.483Z,26.39
2022-07-29T22:13:07.198Z,26.46
2022-07-29T22:15:33.812Z,26.40
2022-07-29T22:18:00.578Z,26.34
2022-07-29T22:20:27.701Z,26.33
2022-07-29T22:22:54.468Z,26.38
2022-07-29T22:25:21.991Z,26.38
2022-07-29T22:27:48.723Z,26.38
2022-07-29T22:30:15.873Z,26.38
2022-07-29T22:32:42.928Z,26.37
2022-07-29T22:35:09.871Z,26.42
2022-07-29T22:37:36.643Z,26.46
2022-07-29T22:40:04.115Z,26.46
2022-07-29T22:42:30.776Z,26.45
2022-07-29T22:44:57.548Z,26.48
2022-07-29T22:47:46.480Z,26.45
2022-07-29T22:50:11.122Z,26.43
2022-07-29T22:52:37.736Z,26.43
2022-07-29T22:55:05.420Z,26.44
2022-07-29T22:57:32.056Z,26.40
2022-07-29T23:00:01.934Z,26.40
2022-07-29T23:02:29.108Z,26.36
2022-07-29T23:04:55.813Z,26.38
2022-07-29T23:07:22.878Z,26.39
2022-07-29T23:09:49.804Z,26.38
2022-07-29T23:12:16.568Z,26.37
2022-07-29T23:14:43.972Z,26.38
2022-07-29T23:17:10.720Z,26.35
2022-07-29T23:19:37.452Z,26.34
2022-07-29T23:22:04.732Z,26.33
2022-07-29T23:24:31.336Z,26.31
2022-07-29T23:26:58.142Z,26.29
2022-07-29T23:29:24.962Z,26.27
2022-07-29T23:31:51.549Z,26.29
2022-07-29T23:34:18.184Z,26.28
2022-07-29T23:36:44.793Z,26.27
2022-07-29T23:39:12.272Z,26.25
2022-07-29T23:41:39.150Z,26.26
2022-07-29T23:44:05.974Z,26.27
2022-07-29T23:46:32.683Z,26.25
2022-07-29T23:48:59.376Z,26.24
2022-07-29T23:51:26.174Z,26.25
2022-07-29T23:53:54.233Z,26.23
2022-07-29T23:56:21.293Z,26.21
2022-07-29T23:58:48.033Z,26.20
